SSA995 TNCA-KMIA
Flight info
| Callsign | SSA995 |
|---|---|
| Flight time | N/A |
| Altitude | 34000 |
| Route | WALLP1F WALLP DCT POKAK/N0478F320 UT20 CDO DCT LERED L216 GTK BR1L BRRGO BR55V ZQA VIICE2 |
| Aircraft | B739/M-ER/L |
Departure
| Time | 2026-04-28 17:00 |
|---|---|
| Airport | Queen Beatrix International Airport (TNCA) |
Arrival
| Time | N/A |
|---|---|
| Airport | Miami International Airport (KMIA) |
| Time | Latitude | Longitude | Altitude | Speed | Heading |
|---|---|---|---|---|---|
| 2026-04-28 16:25 | 12.50280 | -70.00825 | 57 ft | 0 kts | 13° |
| 2026-04-28 16:45 | 12.50270 | -70.00827 | 54 ft | 3 kts | 12° |
| 2026-04-28 16:45 | 12.50250 | -70.00832 | 57 ft | 3 kts | 12° |
| 2026-04-28 16:46 | 12.50230 | -70.00836 | 53 ft | 3 kts | 12° |
| 2026-04-28 16:46 | 12.50210 | -70.00839 | 53 ft | 3 kts | 346° |
| 2026-04-28 16:46 | 12.50192 | -70.00829 | 55 ft | 3 kts | 304° |
| 2026-04-28 16:46 | 12.50186 | -70.00813 | 53 ft | 3 kts | 275° |
| 2026-04-28 16:47 | 12.50194 | -70.00831 | 55 ft | 3 kts | 309° |
| 2026-04-28 16:47 | 12.50207 | -70.00845 | 51 ft | 3 kts | 314° |
| 2026-04-28 16:47 | 12.50219 | -70.00862 | 58 ft | 3 kts | 291° |
| 2026-04-28 16:47 | 12.50221 | -70.00868 | 58 ft | 0 kts | 287° |
| 2026-04-28 16:53 | 12.50222 | -70.00872 | 58 ft | 2 kts | 286° |
| 2026-04-28 16:53 | 12.50229 | -70.00899 | 55 ft | 5 kts | 285° |
| 2026-04-28 16:53 | 12.50237 | -70.00931 | 55 ft | 5 kts | 284° |
| 2026-04-28 16:54 | 12.50245 | -70.00965 | 52 ft | 5 kts | 283° |
| 2026-04-28 16:54 | 12.50254 | -70.01009 | 55 ft | 8 kts | 281° |
| 2026-04-28 16:54 | 12.50259 | -70.01080 | 54 ft | 11 kts | 253° |
| 2026-04-28 16:54 | 12.50236 | -70.01126 | 51 ft | 11 kts | 246° |
| 2026-04-28 16:55 | 12.50245 | -70.01225 | 51 ft | 10 kts | 284° |
| 2026-04-28 16:55 | 12.50263 | -70.01302 | 49 ft | 12 kts | 284° |
| 2026-04-28 16:55 | 12.50286 | -70.01398 | 45 ft | 16 kts | 283° |
| 2026-04-28 16:55 | 12.50316 | -70.01520 | 45 ft | 19 kts | 284° |
| 2026-04-28 16:56 | 12.50352 | -70.01664 | 42 ft | 22 kts | 283° |
| 2026-04-28 16:56 | 12.50387 | -70.01815 | 38 ft | 21 kts | 284° |
| 2026-04-28 16:56 | 12.50422 | -70.01961 | 36 ft | 21 kts | 284° |
| 2026-04-28 16:56 | 12.50457 | -70.02103 | 33 ft | 20 kts | 283° |
| 2026-04-28 16:57 | 12.50489 | -70.02241 | 29 ft | 20 kts | 284° |
| 2026-04-28 16:57 | 12.50521 | -70.02374 | 27 ft | 19 kts | 283° |
| 2026-04-28 16:57 | 12.50551 | -70.02503 | 26 ft | 18 kts | 283° |
| 2026-04-28 16:57 | 12.50578 | -70.02625 | 22 ft | 16 kts | 273° |
| 2026-04-28 16:58 | 12.50538 | -70.02719 | 23 ft | 14 kts | 246° |
| 2026-04-28 16:58 | 12.50498 | -70.02796 | 21 ft | 9 kts | 224° |
| 2026-04-28 16:58 | 12.50452 | -70.02805 | 21 ft | 5 kts | 154° |
| 2026-04-28 16:58 | 12.50437 | -70.02771 | 22 ft | 5 kts | 104° |
| 2026-04-28 16:59 | 12.50426 | -70.02721 | 24 ft | 20 kts | 103° |
| 2026-04-28 16:59 | 12.50328 | -70.02313 | 28 ft | 95 kts | 104° |
| 2026-04-28 16:59 | 12.50119 | -70.01445 | 48 ft | 154 kts | 104° |
| 2026-04-28 16:59 | 12.49845 | -70.00244 | 301 ft | 182 kts | 105° |
| 2026-04-28 17:00 | 12.49514 | -69.98944 | 887 ft | 196 kts | 104° |
| 2026-04-28 17:00 | 12.49205 | -69.97564 | 1706 ft | 196 kts | 102° |
| 2026-04-28 17:00 | 12.48942 | -69.96206 | 2500 ft | 202 kts | 103° |
| 2026-04-28 17:00 | 12.48645 | -69.94729 | 2931 ft | 224 kts | 96° |
| 2026-04-28 17:01 | 12.48955 | -69.93147 | 3462 ft | 232 kts | 55° |
| 2026-04-28 17:01 | 12.50214 | -69.92164 | 4256 ft | 231 kts | 18° |
| 2026-04-28 17:01 | 12.51781 | -69.91716 | 5013 ft | 238 kts | 14° |
| 2026-04-28 17:01 | 12.53439 | -69.91291 | 5616 ft | 251 kts | 13° |
| 2026-04-28 17:02 | 12.55170 | -69.90849 | 6269 ft | 263 kts | 13° |
| 2026-04-28 17:02 | 12.56364 | -69.90540 | 6700 ft | 271 kts | 14° |
| 2026-04-28 17:02 | 12.58855 | -69.89880 | 7684 ft | 281 kts | 14° |
| 2026-04-28 17:02 | 12.60766 | -69.89364 | 8449 ft | 287 kts | 14° |
| 2026-04-28 17:03 | 12.64658 | -69.88297 | 9938 ft | 296 kts | 14° |
| 2026-04-28 17:03 | 12.66679 | -69.87737 | 10569 ft | 305 kts | 14° |
| 2026-04-28 17:03 | 12.68751 | -69.87162 | 11220 ft | 311 kts | 15° |
| 2026-04-28 17:04 | 12.73015 | -69.85974 | 12487 ft | 323 kts | 15° |
| 2026-04-28 17:04 | 12.75223 | -69.85357 | 12915 ft | 336 kts | 15° |
| 2026-04-28 17:05 | 12.79090 | -69.84277 | 13577 ft | 356 kts | 15° |
| 2026-04-28 17:05 | 12.81520 | -69.83598 | 13970 ft | 367 kts | 15° |
| 2026-04-28 17:05 | 12.84023 | -69.82898 | 14365 ft | 378 kts | 15° |
| 2026-04-28 17:06 | 12.89221 | -69.81442 | 15121 ft | 396 kts | 15° |
| 2026-04-28 17:06 | 12.91910 | -69.80690 | 15515 ft | 404 kts | 15° |
| 2026-04-28 17:06 | 12.97424 | -69.79123 | 16300 ft | 417 kts | 17° |
| 2026-04-28 17:07 | 13.00172 | -69.78141 | 16813 ft | 419 kts | 20° |
| 2026-04-28 17:07 | 13.02899 | -69.77049 | 17311 ft | 421 kts | 21° |
| 2026-04-28 17:07 | 13.05621 | -69.75918 | 17809 ft | 423 kts | 22° |
| 2026-04-28 17:07 | 13.08352 | -69.74779 | 18307 ft | 424 kts | 21° |